Tver, Russia
Current Conditions -  °F | °C
As of 9:00 AM on Friday 19 Dec 2014 (Local Time) from UUEE Reporting Station
Light Snow Light Snow  
Wind Chill: 24°   Ceiling: 900
Heat Index: 32°   Visibility: 4mi
Dew Point: 30°   Wind: 9mph
Humidity: 93%   Direction: 180°S
Pressure: 29.71"   Gusts: NA
Location:  56.86°N, 35.89°E
Report Text: UUEE 190600Z 18004MPS 7000 -SN OVC009 00/M01 Q1006 7555023625550236 NOSIG
Loading
Personal Weather Stations






























Interactive Weather Map New forecast layout! Learn more

10-Day Weather Forecast

Advertisements
Track Severe Weather on mobile